Terminal Aerodrome Forecast
Issued by NWS Wilmington, NC

Home | Current Version | Previous Version | Text Only | Print | Product List | Glossary On
Versions: 1 2 3 4 5 6 7 8 9 10 11 12 13 14 15 16 17 18 19 20 21 22 23 24
663
FTUS42 KILM 231530 AAA
TAFMYR
TAF AMD
KMYR 231530Z 2316/2412 23013G22KT P6SM OVC012
     FM231700 22013G22KT P6SM OVC025
     FM232100 23010G20KT P6SM -SHRA VCTS OVC040CB
     FM232300 25009KT P6SM -SHRA VCTS OVC040CB
     FM240200 25010KT P6SM -SHRA VCTS OVC015CB
     FM240600 25009KT P6SM OVC015 PROB30 2406/2408 4SM -TSRA
      OVC004CB
     FM240800 25005KT P6SM OVC015 PROB30 2408/2410 4SM -TSRA
      OVC004CB
     FM241000 25007KT P6SM OVC015 PROB30 2410/2412 4SM -TSRA
      OVC004CB=

USA.gov is the U.S. government's official web portal to all federal, state and local government web resources and services.